sensor_id;sensor_type;location;lat;lon;timestamp;pressure;altitude;pressure_sealevel;temperature;humidity
42859;BME280;28505;56.970;40.998;2022-08-16T00:00:06;100891.19;;;16.02;100.00
42859;BME280;28505;56.970;40.998;2022-08-16T00:05:46;100891.69;;;16.04;100.00
42859;BME280;28505;56.970;40.998;2022-08-16T00:11:10;100835.72;;;15.66;100.00
42859;BME280;28505;56.970;40.998;2022-08-16T00:16:36;100862.84;;;15.80;100.00
42859;BME280;28505;56.970;40.998;2022-08-16T00:22:18;100855.78;;;15.65;100.00
42859;BME280;28505;56.970;40.998;2022-08-16T00:27:45;100887.84;;;15.68;100.00
42859;BME280;28505;56.970;40.998;2022-08-16T00:33:08;100842.97;;;15.16;100.00
42859;BME280;28505;56.970;40.998;2022-08-16T00:38:30;100891.44;;;15.36;100.00
42859;BME280;28505;56.970;40.998;2022-08-16T00:44:04;100912.38;;;15.50;100.00
42859;BME280;28505;56.970;40.998;2022-08-16T00:49:33;100904.25;;;15.36;100.00
42859;BME280;28505;56.970;40.998;2022-08-16T00:55:03;100884.72;;;15.20;100.00
42859;BME280;28505;56.970;40.998;2022-08-16T01:00:30;100892.47;;;15.13;100.00
42859;BME280;28505;56.970;40.998;2022-08-16T01:06:07;100922.75;;;15.48;100.00
42859;BME280;28505;56.970;40.998;2022-08-16T01:11:51;100914.63;;;15.48;100.00
42859;BME280;28505;56.970;40.998;2022-08-16T01:17:17;100923.38;;;15.44;100.00
42859;BME280;28505;56.970;40.998;2022-08-16T01:23:09;100908.88;;;15.35;100.00
42859;BME280;28505;56.970;40.998;2022-08-16T01:28:37;100923.16;;;15.27;100.00
42859;BME280;28505;56.970;40.998;2022-08-16T01:34:06;100903.72;;;15.06;100.00
42859;BME280;28505;56.970;40.998;2022-08-16T01:39:44;100920.03;;;15.20;100.00
42859;BME280;28505;56.970;40.998;2022-08-16T01:45:06;100913.19;;;15.09;100.00
42859;BME280;28505;56.970;40.998;2022-08-16T01:50:28;100917.50;;;15.10;100.00
42859;BME280;28505;56.970;40.998;2022-08-16T01:56:10;100921.31;;;14.95;100.00
42859;BME280;28505;56.970;40.998;2022-08-16T02:01:48;100925.41;;;14.92;100.00
42859;BME280;28505;56.970;40.998;2022-08-16T02:07:22;100922.78;;;14.87;100.00
42859;BME280;28505;56.970;40.998;2022-08-16T02:12:45;100925.41;;;14.79;100.00
42859;BME280;28505;56.970;40.998;2022-08-16T02:18:17;100916.88;;;14.85;100.00
42859;BME280;28505;56.970;40.998;2022-08-16T02:23:40;100922.00;;;15.01;100.00
42859;BME280;28505;56.970;40.998;2022-08-16T02:29:03;100919.41;;;15.09;100.00
42859;BME280;28505;56.970;40.998;2022-08-16T02:34:32;100928.09;;;15.25;100.00
42859;BME280;28505;56.970;40.998;2022-08-16T02:40:04;100923.84;;;15.33;100.00
42859;BME280;28505;56.970;40.998;2022-08-16T02:45:27;100923.16;;;15.41;100.00
42859;BME280;28505;56.970;40.998;2022-08-16T02:50:50;100927.19;;;15.57;100.00
42859;BME280;28505;56.970;40.998;2022-08-16T02:56:33;100935.28;;;15.76;100.00
42859;BME280;28505;56.970;40.998;2022-08-16T03:01:58;100937.75;;;15.86;100.00
42859;BME280;28505;56.970;40.998;2022-08-16T03:07:28;100920.44;;;15.82;100.00
42859;BME280;28505;56.970;40.998;2022-08-16T03:12:58;100906.75;;;15.87;100.00
42859;BME280;28505;56.970;40.998;2022-08-16T03:18:22;100880.66;;;15.73;100.00
42859;BME280;28505;56.970;40.998;2022-08-16T03:24:00;100932.16;;;16.19;100.00
42859;BME280;28505;56.970;40.998;2022-08-16T03:29:24;100940.69;;;16.26;100.00
42859;BME280;28505;56.970;40.998;2022-08-16T03:34:52;100935.00;;;16.36;100.00
42859;BME280;28505;56.970;40.998;2022-08-16T03:40:15;100913.84;;;16.33;100.00
42859;BME280;28505;56.970;40.998;2022-08-16T03:45:55;100941.88;;;16.56;100.00
42859;BME280;28505;56.970;40.998;2022-08-16T03:51:23;100945.16;;;16.67;100.00
42859;BME280;28505;56.970;40.998;2022-08-16T03:56:52;100912.44;;;16.58;100.00
42859;BME280;28505;56.970;40.998;2022-08-16T04:02:21;100936.81;;;16.86;100.00
42859;BME280;28505;56.970;40.998;2022-08-16T04:07:56;100939.09;;;16.93;100.00
42859;BME280;28505;56.970;40.998;2022-08-16T04:13:19;100920.84;;;16.93;100.00
42859;BME280;28505;56.970;40.998;2022-08-16T04:19:02;100945.47;;;17.19;100.00
42859;BME280;28505;56.970;40.998;2022-08-16T04:24:26;100928.84;;;17.21;100.00
42859;BME280;28505;56.970;40.998;2022-08-16T04:29:51;100911.06;;;17.23;100.00
42859;BME280;28505;56.970;40.998;2022-08-16T04:35:28;100934.72;;;17.54;100.00
42859;BME280;28505;56.970;40.998;2022-08-16T04:40:55;100913.84;;;18.24;100.00
42859;BME280;28505;56.970;40.998;2022-08-16T04:46:21;100927.09;;;19.72;100.00
42859;BME280;28505;56.970;40.998;2022-08-16T04:52:04;100949.97;;;20.39;100.00
42859;BME280;28505;56.970;40.998;2022-08-16T04:57:48;100952.56;;;20.89;100.00
42859;BME280;28505;56.970;40.998;2022-08-16T05:03:16;100955.00;;;21.36;100.00
42859;BME280;28505;56.970;40.998;2022-08-16T05:08:40;100952.44;;;22.05;100.00
42859;BME280;28505;56.970;40.998;2022-08-16T05:14:14;100961.41;;;22.70;100.00
42859;BME280;28505;56.970;40.998;2022-08-16T05:19:57;100956.69;;;23.30;100.00
42859;BME280;28505;56.970;40.998;2022-08-16T05:25:28;100954.53;;;23.87;100.00
42859;BME280;28505;56.970;40.998;2022-08-16T05:31:08;100956.59;;;24.29;100.00
42859;BME280;28505;56.970;40.998;2022-08-16T05:36:31;100959.50;;;24.17;99.79
42859;BME280;28505;56.970;40.998;2022-08-16T05:41:59;100954.47;;;23.68;96.70
42859;BME280;28505;56.970;40.998;2022-08-16T05:47:23;100951.88;;;23.91;99.88
42859;BME280;28505;56.970;40.998;2022-08-16T05:52:50;100930.06;;;24.40;96.95
42859;BME280;28505;56.970;40.998;2022-08-16T05:58:13;100951.56;;;25.12;90.32
42859;BME280;28505;56.970;40.998;2022-08-16T06:03:55;100889.97;;;25.31;86.95
42859;BME280;28505;56.970;40.998;2022-08-16T06:09:28;100918.47;;;25.92;82.74
42859;BME280;28505;56.970;40.998;2022-08-16T06:15:11;100938.22;;;26.54;80.39
42859;BME280;28505;56.970;40.998;2022-08-16T06:20:37;100904.78;;;26.67;78.44
42859;BME280;28505;56.970;40.998;2022-08-16T06:26:18;100898.63;;;26.88;75.53
42859;BME280;28505;56.970;40.998;2022-08-16T06:31:40;100929.53;;;27.38;69.68
42859;BME280;28505;56.970;40.998;2022-08-16T06:37:11;100903.50;;;27.53;67.54
42859;BME280;28505;56.970;40.998;2022-08-16T06:42:36;100910.31;;;27.63;65.13
42859;BME280;28505;56.970;40.998;2022-08-16T06:48:43;100891.97;;;26.92;62.75
42859;BME280;28505;56.970;40.998;2022-08-16T06:54:12;100926.94;;;27.11;64.67
42859;BME280;28505;56.970;40.998;2022-08-16T06:59:38;100930.31;;;27.35;65.27
42859;BME280;28505;56.970;40.998;2022-08-16T07:05:26;100937.06;;;27.37;64.48
42859;BME280;28505;56.970;40.998;2022-08-16T07:11:10;100933.78;;;27.24;64.21
42859;BME280;28505;56.970;40.998;2022-08-16T07:16:37;100929.59;;;27.48;62.30
42859;BME280;28505;56.970;40.998;2022-08-16T07:22:03;100924.31;;;27.81;61.97
42859;BME280;28505;56.970;40.998;2022-08-16T07:27:47;100900.28;;;28.06;62.12
42859;BME280;28505;56.970;40.998;2022-08-16T07:33:16;100917.81;;;28.35;59.44
42859;BME280;28505;56.970;40.998;2022-08-16T07:39:01;100914.22;;;28.38;59.48
42859;BME280;28505;56.970;40.998;2022-08-16T07:44:31;100915.09;;;28.42;57.42
42859;BME280;28505;56.970;40.998;2022-08-16T07:50:14;100908.38;;;28.54;58.13
42859;BME280;28505;56.970;40.998;2022-08-16T07:56:01;100906.00;;;28.63;57.46
42859;BME280;28505;56.970;40.998;2022-08-16T08:01:32;100911.97;;;28.69;57.43
42859;BME280;28505;56.970;40.998;2022-08-16T08:06:58;100909.19;;;28.80;57.50
42859;BME280;28505;56.970;40.998;2022-08-16T08:12:30;100898.09;;;28.83;55.44
42859;BME280;28505;56.970;40.998;2022-08-16T08:17:58;100892.97;;;28.85;54.15
42859;BME280;28505;56.970;40.998;2022-08-16T08:23:45;100885.44;;;28.89;53.56
42859;BME280;28505;56.970;40.998;2022-08-16T08:29:09;100890.56;;;28.69;52.13
42859;BME280;28505;56.970;40.998;2022-08-16T08:34:33;100875.50;;;28.63;53.36
42859;BME280;28505;56.970;40.998;2022-08-16T08:39:59;100885.03;;;28.91;52.28
42859;BME280;28505;56.970;40.998;2022-08-16T08:45:24;100882.25;;;28.84;49.94
42859;BME280;28505;56.970;40.998;2022-08-16T08:51:08;100885.00;;;28.87;50.92
42859;BME280;28505;56.970;40.998;2022-08-16T08:56:58;100879.50;;;29.09;51.75
42859;BME280;28505;56.970;40.998;2022-08-16T09:02:31;100877.13;;;29.22;50.72
42859;BME280;28505;56.970;40.998;2022-08-16T09:07:57;100880.66;;;29.33;50.33
42859;BME280;28505;56.970;40.998;2022-08-16T09:13:39;100879.91;;;29.07;50.87
42859;BME280;28505;56.970;40.998;2022-08-16T09:19:10;100879.50;;;29.27;51.40
42859;BME280;28505;56.970;40.998;2022-08-16T09:24:34;100872.34;;;29.22;48.24
42859;BME280;28505;56.970;40.998;2022-08-16T09:30:16;100867.59;;;28.98;48.89
42859;BME280;28505;56.970;40.998;2022-08-16T09:35:59;100877.50;;;29.13;50.03
42859;BME280;28505;56.970;40.998;2022-08-16T09:41:23;100869.19;;;29.27;50.54
42859;BME280;28505;56.970;40.998;2022-08-16T09:46:48;100864.00;;;29.44;50.26
42859;BME280;28505;56.970;40.998;2022-08-16T09:52:14;100864.44;;;29.24;50.56
42859;BME280;28505;56.970;40.998;2022-08-16T09:57:38;100864.00;;;29.29;50.71
42859;BME280;28505;56.970;40.998;2022-08-16T10:03:13;100800.97;;;28.47;48.80
42859;BME280;28505;56.970;40.998;2022-08-16T10:08:35;100811.19;;;28.11;50.74
42859;BME280;28505;56.970;40.998;2022-08-16T10:14:18;100836.56;;;28.28;52.23
42859;BME280;28505;56.970;40.998;2022-08-16T10:19:52;100848.06;;;28.33;50.53
42859;BME280;28505;56.970;40.998;2022-08-16T10:25:16;100845.66;;;28.17;51.63
42859;BME280;28505;56.970;40.998;2022-08-16T10:31:02;100815.94;;;28.07;50.70
42859;BME280;28505;56.970;40.998;2022-08-16T10:36:35;100803.91;;;27.74;51.37
42859;BME280;28505;56.970;40.998;2022-08-16T10:41:59;100812.22;;;27.74;52.51
42859;BME280;28505;56.970;40.998;2022-08-16T10:47:21;100803.13;;;27.70;53.21
42859;BME280;28505;56.970;40.998;2022-08-16T10:52:46;100823.78;;;27.80;52.89
42859;BME280;28505;56.970;40.998;2022-08-16T10:58:22;100782.50;;;27.61;52.99
42859;BME280;28505;56.970;40.998;2022-08-16T11:03:56;100831.78;;;28.07;52.79
42859;BME280;28505;56.970;40.998;2022-08-16T11:09:19;100773.78;;;27.62;52.32
42859;BME280;28505;56.970;40.998;2022-08-16T11:14:46;100809.81;;;27.69;52.94
42859;BME280;28505;56.970;40.998;2022-08-16T11:20:28;100827.34;;;27.88;53.68
42859;BME280;28505;56.970;40.998;2022-08-16T11:26:01;100828.41;;;27.65;53.38
42859;BME280;28505;56.970;40.998;2022-08-16T11:31:44;100812.53;;;27.51;55.04
42859;BME280;28505;56.970;40.998;2022-08-16T11:37:14;100809.44;;;27.67;55.21
42859;BME280;28505;56.970;40.998;2022-08-16T11:42:56;100774.28;;;27.82;55.04
42859;BME280;28505;56.970;40.998;2022-08-16T11:48:19;100794.16;;;28.13;54.32
42859;BME280;28505;56.970;40.998;2022-08-16T11:53:41;100762.91;;;28.16;54.18
42859;BME280;28505;56.970;40.998;2022-08-16T11:59:03;100768.44;;;28.30;53.51
42859;BME280;28505;56.970;40.998;2022-08-16T12:04:26;100741.09;;;28.18;54.05
42859;BME280;28505;56.970;40.998;2022-08-16T12:09:52;100742.28;;;28.28;52.47
42859;BME280;28505;56.970;40.998;2022-08-16T12:15:14;100728.84;;;28.26;51.88
42859;BME280;28505;56.970;40.998;2022-08-16T12:20:40;100756.19;;;28.60;51.99
42859;BME280;28505;56.970;40.998;2022-08-16T12:26:05;100743.91;;;28.61;52.62
42859;BME280;28505;56.970;40.998;2022-08-16T12:31:31;100755.78;;;28.79;52.22
42859;BME280;28505;56.970;40.998;2022-08-16T12:36:52;100743.13;;;28.50;51.86
42859;BME280;28505;56.970;40.998;2022-08-16T12:42:15;100730.41;;;28.27;51.99
42859;BME280;28505;56.970;40.998;2022-08-16T12:47:40;100757.78;;;28.46;51.89
42859;BME280;28505;56.970;40.998;2022-08-16T12:53:42;100758.19;;;28.45;52.64
42859;BME280;28505;56.970;40.998;2022-08-16T12:59:09;100711.41;;;28.29;52.58
42859;BME280;28505;56.970;40.998;2022-08-16T13:04:40;100723.69;;;28.35;51.67
42859;BME280;28505;56.970;40.998;2022-08-16T13:10:05;100757.41;;;28.52;52.73
42859;BME280;28505;56.970;40.998;2022-08-16T13:15:56;100757.00;;;28.57;52.10
42859;BME280;28505;56.970;40.998;2022-08-16T13:21:24;100752.66;;;28.49;53.00
42859;BME280;28505;56.970;40.998;2022-08-16T13:26:46;100748.66;;;28.39;53.25
42859;BME280;28505;56.970;40.998;2022-08-16T13:32:13;100745.47;;;28.37;54.25
42859;BME280;28505;56.970;40.998;2022-08-16T13:37:55;100743.53;;;28.41;54.03
42859;BME280;28505;56.970;40.998;2022-08-16T13:43:17;100734.78;;;28.21;53.86
42859;BME280;28505;56.970;40.998;2022-08-16T13:48:42;100743.88;;;28.07;54.73
42859;BME280;28505;56.970;40.998;2022-08-16T13:54:05;100727.22;;;27.93;55.39
42859;BME280;28505;56.970;40.998;2022-08-16T13:59:27;100711.38;;;27.86;55.97
42859;BME280;28505;56.970;40.998;2022-08-16T14:04:54;100716.91;;;27.86;56.65
42859;BME280;28505;56.970;40.998;2022-08-16T14:10:28;100733.13;;;27.88;57.04
42859;BME280;28505;56.970;40.998;2022-08-16T14:15:51;100709.28;;;27.54;57.51
42859;BME280;28505;56.970;40.998;2022-08-16T14:21:13;100706.44;;;27.40;57.89
42859;BME280;28505;56.970;40.998;2022-08-16T14:26:38;100708.38;;;27.29;58.48
42859;BME280;28505;56.970;40.998;2022-08-16T14:32:04;100736.06;;;27.33;58.90
42859;BME280;28505;56.970;40.998;2022-08-16T14:37:27;100727.31;;;27.20;58.80
42859;BME280;28505;56.970;40.998;2022-08-16T14:42:52;100732.00;;;27.12;59.51
42859;BME280;28505;56.970;40.998;2022-08-16T14:48:15;100736.28;;;27.02;59.75
42859;BME280;28505;56.970;40.998;2022-08-16T14:53:46;100698.94;;;26.71;60.06
42859;BME280;28505;56.970;40.998;2022-08-16T14:59:14;100693.28;;;26.53;60.51
42859;BME280;28505;56.970;40.998;2022-08-16T15:04:37;100734.47;;;26.66;61.05
42859;BME280;28505;56.970;40.998;2022-08-16T15:10:11;100729.25;;;26.53;61.17
42859;BME280;28505;56.970;40.998;2022-08-16T15:15:44;100701.31;;;26.25;61.37
42859;BME280;28505;56.970;40.998;2022-08-16T15:21:19;100724.59;;;26.20;62.08
42859;BME280;28505;56.970;40.998;2022-08-16T15:26:41;100719.63;;;25.99;62.40
42859;BME280;28505;56.970;40.998;2022-08-16T15:32:07;100716.63;;;25.78;63.18
42859;BME280;28505;56.970;40.998;2022-08-16T15:37:46;100714.41;;;25.57;63.69
42859;BME280;28505;56.970;40.998;2022-08-16T15:43:14;100716.97;;;25.39;63.88
42859;BME280;28505;56.970;40.998;2022-08-16T15:48:37;100712.34;;;25.16;64.81
42859;BME280;28505;56.970;40.998;2022-08-16T15:54:01;100695.00;;;24.89;65.34
42859;BME280;28505;56.970;40.998;2022-08-16T15:59:44;100708.22;;;24.76;66.32
42859;BME280;28505;56.970;40.998;2022-08-16T16:05:15;100654.91;;;24.19;68.10
42859;BME280;28505;56.970;40.998;2022-08-16T16:10:42;100679.41;;;24.24;69.24
42859;BME280;28505;56.970;40.998;2022-08-16T16:16:15;100687.31;;;24.03;69.91
